Time;durP1;ratioP1;P1;durP2;ratioP2;P2;SDS_P1;SDS_P2;PMS_P1;PMS_P2;Temp;Humidity;BMP_temperature;BMP_pressure;BME280_temperature;BME280_humidity;BME280_pressure;Samples;Min_cycle;Max_cycle;Signal;HPM_P1;HPM_P2
2022/07/24 00:00:23;;;;;;;10.20;7.18;;;;;;;;;;5064367;28;20401;-77
2022/07/24 00:02:48;;;;;;;9.63;8.00;;;;;;;16.36;92.79;68583.59;5053809;28;20064;-77
2022/07/24 00:05:14;;;;;;;10.18;7.75;;;;;;;16.40;92.49;68591.44;5056699;28;20040;-77
2022/07/24 00:07:39;;;;;;;10.82;7.82;;;;;;;16.42;92.13;68588.31;5062828;28;20500;-77
2022/07/24 00:10:06;;;;;;;9.27;7.78;;;;;;;16.37;92.30;68585.31;5061661;28;20108;-77
2022/07/24 00:12:32;;;;;;;9.30;7.57;;;;;;;16.40;92.02;68591.44;5066441;28;20551;-77
2022/07/24 00:14:57;;;;;;;10.45;7.43;;;;;;;16.39;91.94;68595.66;5065844;28;20047;-78
2022/07/24 00:17:23;;;;;;;10.43;7.82;;;;;;;;;;5067390;28;20033;-77
2022/07/24 00:19:48;;;;;;;8.80;7.63;;;;;;;16.43;91.63;68594.84;5063323;28;20036;-77
2022/07/24 00:22:14;;;;;;;9.85;7.82;;;;;;;16.41;91.85;68597.94;5067295;28;20275;-77
2022/07/24 00:24:39;;;;;;;10.50;8.55;;;;;;;16.42;91.76;68593.13;5060456;28;20478;-77
2022/07/24 00:27:04;;;;;;;8.70;7.35;;;;;;;16.39;91.46;68590.28;5048132;28;20033;-77
2022/07/24 00:29:30;;;;;;;11.80;7.90;;;;;;;;;;5047614;28;20049;-77
2022/07/24 00:31:55;;;;;;;10.57;7.60;;;;;;;;;;5061001;28;20064;-77
2022/07/24 00:34:20;;;;;;;9.43;8.07;;;;;;;16.35;91.90;68585.16;5053900;28;20094;-78
2022/07/24 00:36:46;;;;;;;9.75;7.88;;;;;;;;;;5063797;28;20051;-77
2022/07/24 00:39:11;;;;;;;9.63;7.63;;;;;;;16.34;91.71;68584.59;5065787;28;20678;-77
2022/07/24 00:41:37;;;;;;;10.00;7.47;;;;;;;16.32;91.50;68579.06;5060505;28;20045;-77
2022/07/24 00:44:10;;;;;;;9.13;7.32;;;;;;;16.35;91.54;68585.16;5066783;28;20488;-77
2022/07/24 00:46:38;;;;;;;9.00;7.07;;;;;;;16.36;91.21;68586.84;5059536;28;20496;-77
2022/07/24 00:49:04;;;;;;;9.65;7.95;;;;;;;;;;5063470;28;20044;-77
2022/07/24 00:51:30;;;;;;;7.97;7.05;;;;;;;16.31;90.95;68586.53;5051200;28;20052;-77
2022/07/24 00:53:55;;;;;;;8.65;7.43;;;;;;;;;;5057931;28;20036;-77
2022/07/24 00:56:22;;;;;;;8.13;6.93;;;;;;;16.34;91.04;68589.97;5057230;28;20043;-78
2022/07/24 00:58:47;;;;;;;10.43;6.95;;;;;;;16.32;91.38;68581.75;5067377;28;20527;-77
2022/07/24 01:01:14;;;;;;;8.13;7.22;;;;;;;16.31;91.24;68585.97;5056785;28;20115;-78
2022/07/24 01:03:40;;;;;;;10.68;7.65;;;;;;;16.30;91.66;68585.38;5062076;28;20047;-77
2022/07/24 01:06:06;;;;;;;9.15;7.47;;;;;;;16.32;91.42;68581.75;5065107;28;20040;-78
2022/07/24 01:08:34;;;;;;;8.93;7.00;;;;;;;16.31;91.28;68586.53;5061674;28;20049;-77
2022/07/24 01:11:01;;;;;;;9.20;7.70;;;;;;;16.32;91.22;68587.69;5065951;28;20041;-77
2022/07/24 01:13:26;;;;;;;12.82;7.80;;;;;;;16.35;91.01;68585.72;5063889;28;20600;-77
2022/07/24 01:15:52;;;;;;;10.48;7.60;;;;;;;16.32;90.49;68587.69;5064519;28;20139;-78
2022/07/24 01:18:17;;;;;;;9.75;7.32;;;;;;;;;;5063949;28;20085;-77
2022/07/24 01:20:46;;;;;;;9.07;6.85;;;;;;;16.35;90.64;68590.53;5058746;28;20044;-77
2022/07/24 01:23:13;;;;;;;8.13;6.68;;;;;;;16.33;90.67;68583.44;5066337;28;20067;-76
2022/07/24 01:25:39;;;;;;;11.88;6.95;;;;;;;16.37;90.23;68592.78;5062676;28;20044;-75
2022/07/24 01:28:04;;;;;;;8.38;6.90;;;;;;;16.34;90.51;68581.31;5066064;28;20036;-76
2022/07/24 01:30:29;;;;;;;8.93;6.90;;;;;;;;;;5062364;28;20064;-75
2022/07/24 01:32:55;;;;;;;8.45;6.53;;;;;;;16.35;90.20;68585.72;5059054;28;20044;-75
2022/07/24 01:35:20;;;;;;;8.23;6.50;;;;;;;16.36;90.46;68591.66;5062490;28;20036;-76
2022/07/24 01:37:46;;;;;;;9.15;7.38;;;;;;;16.34;90.13;68589.97;5057398;28;20059;-75
2022/07/24 01:40:11;;;;;;;9.60;6.80;;;;;;;16.32;90.49;68582.31;5061878;28;20052;-75
2022/07/24 01:42:37;;;;;;;9.00;7.20;;;;;;;16.25;90.72;68579.69;5065028;28;20496;-76
2022/07/24 01:45:02;;;;;;;10.55;6.32;;;;;;;16.26;90.62;68580.28;5063626;28;20048;-76
2022/07/24 01:47:28;;;;;;;8.35;7.22;;;;;;;16.28;90.38;68577.16;5047189;28;20099;-75
2022/07/24 01:49:53;;;;;;;8.77;7.25;;;;;;;16.22;90.70;68570.91;5043507;28;20041;-75
2022/07/24 01:52:19;;;;;;;8.80;6.97;;;;;;;;;;5045886;28;20037;-76
2022/07/24 01:54:44;;;;;;;9.40;7.53;;;;;;;16.13;91.09;68560.63;5057519;28;20519;-75
2022/07/24 01:57:10;;;;;;;10.05;7.65;;;;;;;16.09;91.73;68556.09;5051399;28;20124;-75
2022/07/24 01:59:35;;;;;;;9.07;7.47;;;;;;;16.07;91.85;68554.38;5051456;28;20040;-75
2022/07/24 02:02:00;;;;;;;8.85;7.85;;;;;;;16.03;92.16;68555.19;5064972;28;20090;-75
2022/07/24 02:04:26;;;;;;;10.18;7.70;;;;;;;;;;5051622;28;20037;-76
2022/07/24 02:06:51;;;;;;;10.68;8.20;;;;;;;16.03;92.16;68555.19;5054638;28;20040;-75
2022/07/24 02:09:16;;;;;;;9.63;7.45;;;;;;;15.97;92.55;68548.91;5064365;28;20340;-75
2022/07/24 02:11:42;;;;;;;10.25;8.55;;;;;;;15.98;92.54;68550.06;5062442;28;20036;-76
2022/07/24 02:14:07;;;;;;;10.57;8.13;;;;;;;;;;5050663;28;20062;-76
2022/07/24 02:16:32;;;;;;;10.10;8.65;;;;;;;16.00;92.39;68551.78;5061693;28;20046;-76
2022/07/24 02:18:58;;;;;;;9.52;8.13;;;;;;;15.96;92.80;68542.41;5050329;28;20044;-76
2022/07/24 02:21:23;;;;;;;10.65;8.60;;;;;;;15.96;92.66;68547.78;5060322;28;20050;-75
2022/07/24 02:23:49;;;;;;;11.02;8.57;;;;;;;15.93;92.71;68538.97;5068648;28;20032;-76
2022/07/24 02:26:14;;;;;;;14.95;8.98;;;;;;;15.91;92.84;68536.13;5054843;28;20052;-75
2022/07/24 02:28:40;;;;;;;9.98;8.20;;;;;;;15.88;93.44;68532.72;5065622;28;20129;-75
2022/07/24 02:31:05;;;;;;;10.25;8.15;;;;;;;15.91;92.74;68541.50;5060713;28;20515;-75
2022/07/24 02:33:30;;;;;;;11.43;8.70;;;;;;;15.91;92.62;68542.09;5066229;28;20114;-75
2022/07/24 02:35:56;;;;;;;9.60;8.35;;;;;;;15.92;92.50;68537.28;5064125;28;20052;-75
2022/07/24 02:38:21;;;;;;;11.18;8.88;;;;;;;15.92;92.54;68542.66;5059732;28;20037;-75
2022/07/24 02:40:46;;;;;;;11.48;9.43;;;;;;;15.94;92.55;68545.50;5055663;28;20071;-75
2022/07/24 02:43:12;;;;;;;11.02;8.00;;;;;;;15.93;92.28;68544.34;5064497;28;20134;-75
2022/07/24 02:45:37;;;;;;;11.02;8.73;;;;;;;;;;5061654;28;20045;-75
2022/07/24 02:48:03;;;;;;;10.27;8.55;;;;;;;15.91;92.04;68536.13;5049656;28;20492;-75
2022/07/24 02:50:35;;;;;;;12.43;8.55;;;;;;;15.86;92.51;68536.38;5048520;28;20048;-74
2022/07/24 02:53:01;;;;;;;10.75;8.23;;;;;;;15.85;92.56;68535.22;5050096;28;20158;-75
2022/07/24 02:55:28;;;;;;;10.90;8.75;;;;;;;15.84;92.32;68528.72;5049547;28;20140;-75
2022/07/24 02:57:53;;;;;;;10.07;8.45;;;;;;;;;;5069060;28;20048;-75
2022/07/24 03:00:18;;;;;;;9.90;8.57;;;;;;;;;;5063621;28;20154;-75
2022/07/24 03:02:44;;;;;;;13.13;8.60;;;;;;;;;;5049945;28;20401;-75
2022/07/24 03:05:10;;;;;;;11.68;9.30;;;;;;;15.74;93.26;68517.34;5049047;28;20052;-75
2022/07/24 03:07:36;;;;;;;12.38;8.77;;;;;;;15.67;93.34;68515.28;5069289;28;20483;-77
2022/07/24 03:10:06;;;;;;;11.45;8.52;;;;;;;15.70;93.47;68518.16;5073006;28;20032;-77
2022/07/24 03:12:31;;;;;;;9.88;8.20;;;;;;;;;;5069540;28;20056;-77
2022/07/24 03:14:57;;;;;;;11.07;8.43;;;;;;;15.66;93.35;68508.22;5071605;28;20040;-77
2022/07/24 03:17:22;;;;;;;9.23;7.90;;;;;;;15.65;93.62;68515.69;5069373;28;20055;-77
2022/07/24 03:19:47;;;;;;;10.45;8.18;;;;;;;15.64;93.38;68511.84;5072255;28;20119;-77
2022/07/24 03:22:13;;;;;;;10.70;8.75;;;;;;;15.63;93.51;68505.34;5061094;28;20037;-77
2022/07/24 03:24:38;;;;;;;10.85;8.20;;;;;;;15.61;93.60;68502.50;5072252;28;20047;-77
2022/07/24 03:27:03;;;;;;;10.35;8.50;;;;;;;;;;5069949;28;20044;-77
2022/07/24 03:29:29;;;;;;;11.52;8.85;;;;;;;15.55;94.41;68494.13;5069677;28;20055;-77
2022/07/24 03:31:54;;;;;;;11.25;8.30;;;;;;;;;;5068203;28;20058;-77
2022/07/24 03:34:19;;;;;;;11.37;8.47;;;;;;;15.65;93.40;68512.41;5056584;28;20037;-77
2022/07/24 03:36:45;;;;;;;12.02;8.00;;;;;;;15.65;93.61;68507.63;5069904;28;20267;-77
2022/07/24 03:39:10;;;;;;;11.93;7.85;;;;;;;15.73;93.02;68522.13;5072052;28;20051;-77
2022/07/24 03:41:35;;;;;;;10.65;8.00;;;;;;;;;;5060540;28;20633;-77
2022/07/24 03:44:01;;;;;;;8.93;7.82;;;;;;;15.77;92.60;68521.34;5051778;28;20107;-77
2022/07/24 03:46:28;;;;;;;9.85;8.20;;;;;;;15.80;92.80;68524.19;5037100;28;20041;-77
2022/07/24 03:48:54;;;;;;;10.57;8.15;;;;;;;15.84;92.42;68534.09;5052761;28;20051;-77
2022/07/24 03:51:19;;;;;;;10.02;7.85;;;;;;;15.87;91.98;68537.50;5069778;28;20036;-77
2022/07/24 03:53:45;;;;;;;12.30;8.23;;;;;;;15.91;91.61;68542.09;5058363;28;20064;-77
2022/07/24 03:56:10;;;;;;;9.68;8.30;;;;;;;15.91;92.13;68536.72;5066296;28;20033;-77
2022/07/24 03:58:36;;;;;;;12.95;9.23;;;;;;;15.93;91.85;68538.97;5053140;28;20071;-76
2022/07/24 04:01:02;;;;;;;12.27;7.95;;;;;;;16.00;91.40;68546.41;5069164;28;20045;-76
2022/07/24 04:03:27;;;;;;;12.45;8.80;;;;;;;16.01;91.38;68548.09;5063980;28;20046;-76
2022/07/24 04:05:53;;;;;;;10.10;8.45;;;;;;;;;;5064818;28;20041;-77
2022/07/24 04:08:18;;;;;;;12.13;8.30;;;;;;;16.06;90.95;68558.59;5070403;28;20636;-77
2022/07/24 04:10:43;;;;;;;10.90;8.75;;;;;;;;;;5060811;28;20040;-77
2022/07/24 04:13:09;;;;;;;10.65;7.80;;;;;;;16.15;90.79;68562.94;5056704;28;20053;-77
2022/07/24 04:15:34;;;;;;;10.15;8.45;;;;;;;16.18;90.34;68566.34;5056757;28;20136;-77
2022/07/24 04:18:00;;;;;;;11.07;8.60;;;;;;;;;;5066412;28;20037;-77
2022/07/24 04:20:25;;;;;;;10.93;8.45;;;;;;;;;;5067121;28;20048;-77
2022/07/24 04:22:50;;;;;;;9.75;8.43;;;;;;;;;;5063874;28;20037;-77
2022/07/24 04:25:16;;;;;;;10.55;8.43;;;;;;;16.30;89.78;68585.38;5070583;28;20137;-77
2022/07/24 04:27:43;;;;;;;13.23;8.55;;;;;;;;;;5069112;28;20048;-77
2022/07/24 04:30:09;;;;;;;14.65;8.60;;;;;;;;;;5069290;28;20032;-77
2022/07/24 04:32:34;;;;;;;11.48;8.60;;;;;;;16.35;89.84;68585.16;5066982;28;20420;-77
2022/07/24 04:34:59;;;;;;;12.23;8.93;;;;;;;;;;5062400;28;20045;-77
2022/07/24 04:37:24;;;;;;;11.17;8.90;;;;;;;;;;5067747;28;20544;-77
2022/07/24 04:39:50;;;;;;;11.25;8.70;;;;;;;;;;5075931;28;20291;-77
2022/07/24 04:42:15;;;;;;;11.93;8.77;;;;;;;;;;5069293;28;20064;-77
2022/07/24 04:44:40;;;;;;;11.25;8.75;;;;;;;16.55;88.74;68607.38;5069161;28;20282;-77
2022/07/24 04:47:06;;;;;;;12.15;9.07;;;;;;;;;;5067773;28;20047;-77
2022/07/24 04:49:31;;;;;;;10.93;8.80;;;;;;;16.66;88.01;68620.50;5064575;28;20074;-76
2022/07/24 04:51:57;;;;;;;12.35;8.77;;;;;;;16.74;87.21;68629.03;5059284;28;20041;-77
2022/07/24 04:54:22;;;;;;;11.50;8.48;;;;;;;16.80;86.98;68635.91;5056779;28;20040;-77
2022/07/24 04:56:48;;;;;;;10.23;8.57;;;;;;;;;;5067679;28;20579;-77
2022/07/24 04:59:13;;;;;;;10.82;8.85;;;;;;;16.90;86.58;68647.31;5062562;28;20444;-77
2022/07/24 05:01:38;;;;;;;10.45;8.60;;;;;;;16.99;85.94;68656.44;5064965;28;20110;-77
2022/07/24 05:04:04;;;;;;;11.15;8.60;;;;;;;17.03;86.13;68666.38;5068583;28;20123;-76
2022/07/24 05:06:29;;;;;;;12.23;9.02;;;;;;;17.05;85.99;68668.66;5066106;28;20040;-77
2022/07/24 05:08:55;;;;;;;12.35;8.93;;;;;;;17.10;85.88;68674.38;5068255;28;20545;-77
2022/07/24 05:11:20;;;;;;;10.52;8.48;;;;;;;17.13;85.49;68672.41;5063191;28;20093;-77
2022/07/24 05:13:45;;;;;;;12.82;9.10;;;;;;;;;;5068226;28;20051;-77
2022/07/24 05:16:11;;;;;;;12.18;9.27;;;;;;;17.26;85.36;68687.25;5058703;28;20059;-77
2022/07/24 05:18:36;;;;;;;10.77;8.90;;;;;;;;;;5058707;28;20072;-76
2022/07/24 05:21:02;;;;;;;12.27;8.53;;;;;;;17.30;85.29;68691.81;5062295;28;20045;-77
2022/07/24 05:23:27;;;;;;;12.35;9.32;;;;;;;17.37;85.19;68696.50;5067344;28;20298;-77
2022/07/24 05:25:52;;;;;;;10.60;8.90;;;;;;;;;;5063974;28;20041;-77
2022/07/24 05:28:18;;;;;;;10.37;8.60;;;;;;;;;;5068885;28;20475;-77
2022/07/24 05:30:43;;;;;;;9.82;8.18;;;;;;;;;;5065020;28;20635;-77
2022/07/24 05:33:08;;;;;;;10.13;8.80;;;;;;;;;;5047406;28;20045;-77
2022/07/24 05:35:34;;;;;;;12.15;9.40;;;;;;;;;;5046360;28;20037;-77
2022/07/24 05:37:59;;;;;;;12.15;9.60;;;;;;;;;;5057764;28;20056;-76
2022/07/24 05:40:24;;;;;;;10.88;9.60;;;;;;;17.67;84.00;68732.31;5058762;28;20436;-77
2022/07/24 05:42:50;;;;;;;13.70;9.73;;;;;;;17.71;84.29;68737.44;5060092;28;20072;-77
2022/07/24 05:45:15;;;;;;;15.10;9.77;;;;;;;;;;5063259;28;20467;-76
2022/07/24 05:47:41;;;;;;;11.80;9.65;;;;;;;17.87;83.76;68760.53;5047704;28;20045;-77
2022/07/24 05:50:11;;;;;;;10.60;8.63;;;;;;;17.95;83.24;68763.69;5048878;28;20120;-77
2022/07/24 05:52:37;;;;;;;13.88;10.30;;;;;;;18.02;83.99;68772.28;5046431;28;20472;-77
2022/07/24 05:55:03;;;;;;;11.35;9.43;;;;;;;18.13;83.03;68781.56;5046860;28;20041;-76
2022/07/24 05:57:29;;;;;;;10.18;9.07;;;;;;;18.21;82.74;68793.41;5058891;28;20048;-77
2022/07/24 05:59:54;;;;;;;12.32;10.23;;;;;;;18.30;82.84;68802.50;5067168;28;20126;-77
2022/07/24 06:02:19;;;;;;;10.52;9.18;;;;;;;18.36;81.97;68809.94;5053828;28;20047;-77
2022/07/24 06:04:45;;;;;;;15.15;9.48;;;;;;;;;;5066035;28;20128;-77
2022/07/24 06:07:10;;;;;;;11.85;9.73;;;;;;;18.53;81.53;68823.41;5063489;28;20040;-77
2022/07/24 06:09:36;;;;;;;15.55;10.45;;;;;;;;;;5061731;28;20672;-77
2022/07/24 06:12:02;;;;;;;12.75;10.40;;;;;;;18.68;80.99;68843.22;5087048;22;20048;-77
2022/07/24 06:14:28;;;;;;;12.82;10.15;;;;;;;18.77;80.56;68855.63;5062763;28;20048;-76
2022/07/24 06:16:53;;;;;;;15.93;10.80;;;;;;;;;;5066448;28;20135;-79
2022/07/24 06:19:18;;;;;;;13.00;10.90;;;;;;;18.94;79.80;68874.50;5067817;28;20381;-79
2022/07/24 06:21:43;;;;;;;16.00;10.35;;;;;;;19.03;80.02;68878.81;5066730;28;20286;-79
2022/07/24 06:24:09;;;;;;;13.25;10.27;;;;;;;19.16;79.65;68899.63;5067733;28;20047;-80
2022/07/24 06:26:34;;;;;;;13.18;10.25;;;;;;;19.25;78.83;68914.13;5064637;28;20044;-80
2022/07/24 06:28:59;;;;;;;12.55;10.68;;;;;;;;;;5066227;28;20061;-79
2022/07/24 06:31:25;;;;;;;12.27;10.40;;;;;;;19.47;78.55;68933.31;5064142;28;20165;-77
2022/07/24 06:33:50;;;;;;;14.00;10.88;;;;;;;19.55;77.96;68943.03;5065332;28;20279;-79
2022/07/24 06:36:15;;;;;;;13.70;10.50;;;;;;;19.65;77.13;68953.31;5067628;28;20041;-79
2022/07/24 06:38:41;;;;;;;12.63;10.93;;;;;;;19.70;76.06;68956.34;5066988;28;20642;-79
2022/07/24 06:41:06;;;;;;;12.98;10.20;;;;;;;19.81;76.44;68971.63;5066848;28;20036;-80
2022/07/24 06:43:32;;;;;;;13.73;10.55;;;;;;;19.89;75.89;68980.78;5062458;28;20090;-80
2022/07/24 06:45:57;;;;;;;11.40;10.20;;;;;;;19.99;76.30;68997.59;5067289;28;20118;-80
2022/07/24 06:48:22;;;;;;;14.48;9.65;;;;;;;20.09;75.38;69000.38;5067421;28;20044;-79
2022/07/24 06:50:48;;;;;;;13.93;10.98;;;;;;;20.16;74.84;69005.66;5067807;28;20128;-79
2022/07/24 06:53:13;;;;;;;15.57;9.38;;;;;;;20.21;74.91;69016.78;5069177;28;20071;-79
2022/07/24 06:55:38;;;;;;;12.45;9.57;;;;;;;20.26;74.62;69019.78;5071676;28;20055;-81
2022/07/24 06:58:04;;;;;;;14.30;10.45;;;;;;;20.37;74.57;69039.91;5070399;28;20041;-79
2022/07/24 07:00:29;;;;;;;12.82;10.52;;;;;;;20.38;73.98;69035.66;5069337;28;22705;-81
2022/07/24 07:02:55;;;;;;;12.25;9.75;;;;;;;20.49;74.13;69048.22;5072653;28;20074;-80
2022/07/24 07:05:20;;;;;;;12.75;10.55;;;;;;;20.51;73.97;69050.53;5069870;28;20097;-79
2022/07/24 07:07:45;;;;;;;13.23;10.68;;;;;;;;;;5070796;28;20036;-80
2022/07/24 07:10:11;;;;;;;13.97;10.67;;;;;;;20.70;73.38;69065.72;5063743;28;20166;-79
2022/07/24 07:12:37;;;;;;;12.98;10.60;;;;;;;20.72;73.56;69070.72;5068166;28;20339;-79
2022/07/24 07:15:03;;;;;;;16.38;11.27;;;;;;;20.76;73.15;69077.41;5066167;28;20142;-79
2022/07/24 07:17:29;;;;;;;13.25;11.25;;;;;;;20.79;73.34;69081.41;5070985;28;20688;-80
2022/07/24 07:19:54;;;;;;;13.02;10.63;;;;;;;20.96;73.15;69100.84;5070772;28;20582;-79
2022/07/24 07:22:20;;;;;;;13.60;10.95;;;;;;;21.04;72.78;69106.16;5069374;28;20766;-80
2022/07/24 07:24:45;;;;;;;12.27;10.00;;;;;;;21.09;72.67;69115.16;5069647;28;20040;-79
2022/07/24 07:27:10;;;;;;;16.30;11.30;;;;;;;21.22;72.23;69126.75;5082852;28;20444;-80
2022/07/24 07:29:36;;;;;;;14.90;11.23;;;;;;;21.36;71.97;69145.50;5068194;28;20733;-79
2022/07/24 07:32:01;;;;;;;14.00;11.50;;;;;;;21.52;71.68;69162.66;5068158;28;20033;-79
2022/07/24 07:34:27;;;;;;;15.60;12.45;;;;;;;;;;5055877;28;20041;-77
2022/07/24 07:36:52;;;;;;;14.43;12.10;;;;;;;;;;5061371;28;20052;-80
2022/07/24 07:39:17;;;;;;;15.45;13.38;;;;;;;21.53;71.13;69158.41;5071006;28;20497;-79
2022/07/24 07:41:43;;;;;;;15.82;12.52;;;;;;;;;;5068910;28;20036;-79
2022/07/24 07:44:08;;;;;;;18.97;13.80;;;;;;;21.67;70.48;69179.25;5071218;28;20053;-79
2022/07/24 07:46:33;;;;;;;19.85;12.73;;;;;;;21.77;70.43;69190.69;5070980;28;20259;-80
2022/07/24 07:48:59;;;;;;;17.17;12.93;;;;;;;21.80;70.27;69189.28;5071302;28;20036;-79
2022/07/24 07:51:24;;;;;;;15.93;13.68;;;;;;;21.85;69.89;69200.44;5069054;28;20120;-79
2022/07/24 07:53:50;;;;;;;17.30;13.23;;;;;;;21.85;70.14;69200.44;5072841;28;20123;-82
2022/07/24 07:56:16;;;;;;;17.77;13.73;;;;;;;21.82;70.37;69194.28;5071193;28;20067;-79
2022/07/24 07:58:42;;;;;;;17.92;14.38;;;;;;;21.95;70.31;69205.31;5071311;28;20106;-81
2022/07/24 08:01:07;;;;;;;20.90;14.77;;;;;;;22.04;69.94;69221.03;5072435;28;20045;-82
2022/07/24 08:03:33;;;;;;;19.10;14.30;;;;;;;22.15;69.93;69230.91;5066697;28;20037;-82
2022/07/24 08:06:00;;;;;;;17.00;13.80;;;;;;;22.22;69.86;69238.97;5067207;28;20102;-79
2022/07/24 08:08:25;;;;;;;18.35;14.32;;;;;;;;;;5068384;28;20040;-79
2022/07/24 08:10:50;;;;;;;18.35;14.95;;;;;;;22.46;69.77;69262.56;5070948;28;20123;-81
2022/07/24 08:13:17;;;;;;;20.38;16.05;;;;;;;22.45;68.65;69264.72;5072706;28;20059;-83
2022/07/24 08:15:43;;;;;;;23.00;16.67;;;;;;;22.47;68.20;69266.41;5075762;28;20041;-79
2022/07/24 08:18:08;;;;;;;17.70;13.63;;;;;;;22.51;68.53;69268.31;5088789;28;20032;-80
2022/07/24 08:20:34;;;;;;;20.85;16.17;;;;;;;22.56;68.14;69273.44;5086379;28;20039;-79
2022/07/24 08:22:59;;;;;;;20.83;16.08;;;;;;;22.67;68.17;69292.06;5088127;28;20037;-80
2022/07/24 08:25:26;;;;;;;19.15;14.30;;;;;;;22.67;68.08;69289.34;5087135;28;20044;-80
2022/07/24 08:27:51;;;;;;;24.60;14.80;;;;;;;22.91;67.94;69318.41;5089103;28;20037;-80
2022/07/24 08:30:17;;;;;;;26.50;16.42;;;;;;;22.93;67.06;69320.69;5088668;28;20036;-80
2022/07/24 08:32:43;;;;;;;21.27;15.00;;;;;;;23.12;67.35;69339.75;5087083;28;20041;-79
2022/07/24 08:35:09;;;;;;;21.30;16.85;;;;;;;23.14;66.31;69338.75;5085404;28;20040;-80
2022/07/24 08:37:40;;;;;;;20.85;15.10;;;;;;;23.07;65.96;69336.75;5088896;28;20052;-79
2022/07/24 08:40:07;;;;;;;18.73;14.90;;;;;;;23.10;66.05;69340.19;5087173;28;20067;-79
2022/07/24 08:42:32;;;;;;;18.98;15.32;;;;;;;23.12;65.73;69341.91;5086922;28;21340;-80
2022/07/24 08:44:58;;;;;;;19.08;14.68;;;;;;;23.31;65.23;69357.69;5088410;28;20044;-80
2022/07/24 08:47:25;;;;;;;20.02;14.32;;;;;;;23.30;65.34;69359.22;5086173;28;20033;-80
2022/07/24 08:49:53;;;;;;;19.10;14.23;;;;;;;23.53;65.11;69388.28;5087969;28;20036;-80
2022/07/24 08:52:21;;;;;;;18.50;14.05;;;;;;;23.56;64.37;69391.75;5087628;28;20680;-80
2022/07/24 08:54:47;;;;;;;17.07;14.60;;;;;;;23.50;63.80;69378.84;5087957;28;20064;-80
2022/07/24 08:57:13;;;;;;;21.58;14.05;;;;;;;23.72;62.73;69408.97;5090089;28;20066;-81
2022/07/24 08:59:38;;;;;;;16.75;10.82;;;;;;;23.88;63.16;69421.88;5075670;28;20076;-80
2022/07/24 09:02:04;;;;;;;17.40;12.75;;;;;;;24.08;61.92;69447.50;5064607;28;20029;-79
2022/07/24 09:04:48;;;;;;;18.00;13.57;;;;;;;24.00;61.98;69441.06;5062491;28;20223;-79
2022/07/24 09:07:19;;;;;;;14.98;11.90;;;;;;;24.03;62.34;69433.06;5068772;28;20068;-78
2022/07/24 09:09:57;;;;;;;13.45;10.32;;;;;;;24.09;62.73;69450.81;5047906;28;20068;-78
2022/07/24 09:12:23;;;;;;;;;;;;;;;24.17;62.02;69456.66;5065175;28;20941;-78
2022/07/24 09:14:49;;;;;;;16.23;11.23;;;;;;;24.14;61.11;69451.09;5066686;28;19947;-78
2022/07/24 09:17:19;;;;;;;16.10;11.48;;;;;;;24.34;61.03;69476.19;5067579;28;20047;-78
2022/07/24 09:19:46;;;;;;;12.00;9.40;;;;;;;24.46;59.08;69492.09;5067604;28;20605;-77
2022/07/24 09:22:34;;;;;;;14.02;10.43;;;;;;;24.44;58.38;69489.81;5067599;28;20041;-81
2022/07/24 09:25:18;;;;;;;14.45;10.38;;;;;;;24.45;58.03;69488.22;5043496;28;20426;-80
2022/07/24 09:28:01;;;;;;;16.95;10.48;;;;;;;24.46;57.47;69489.38;5076477;28;20143;-82
2022/07/24 09:30:36;;;;;;;12.90;10.52;;;;;;;24.50;57.97;69493.97;5069583;28;20036;-83
2022/07/24 09:33:12;;;;;;;13.18;10.27;;;;;;;24.64;58.40;69507.28;5067680;28;20115;-82
2022/07/24 09:35:41;;;;;;;13.52;8.68;;;;;;;24.79;56.42;69529.38;5070020;28;20025;-80
2022/07/24 09:38:09;;;;;;;14.25;9.30;;;;;;;24.88;56.44;69539.13;5071819;28;20047;-83
2022/07/24 09:40:38;;;;;;;13.00;10.73;;;;;;;24.88;55.97;69539.69;5069061;28;20071;-80
2022/07/24 09:43:16;;;;;;;17.90;9.80;;;;;;;24.72;56.11;69516.47;5067535;28;20037;-81
2022/07/24 09:46:26;;;;;;;13.52;10.48;;;;;;;24.82;55.73;69530.09;5072622;28;20048;-78
2022/07/24 09:53:23;;;;;;;16.83;9.60;;;;;;;25.21;55.08;69570.97;4983342;28;20609;-78
2022/07/24 10:03:40;;;;;;;11.68;7.38;;;;;;;25.35;53.58;69589.78;4874290;29;20113;-80
2022/07/24 10:06:57;;;;;;;;;;;;;;;25.49;53.77;69604.69;4928365;28;20035;-78
2022/07/24 10:16:30;;;;;;;12.95;7.72;;;;;;;25.53;53.30;69606.56;4953020;28;20049;-78
2022/07/24 10:19:57;;;;;;;11.13;7.70;;;;;;;25.54;52.32;69613.16;4874055;29;20183;-79
2022/07/24 10:23:20;;;;;;;9.43;7.35;;;;;;;25.65;53.43;69623.63;4826953;29;20061;-77
2022/07/24 10:26:35;;;;;;;11.20;7.32;;;;;;;25.70;52.36;69626.06;4842161;29;20048;-78
2022/07/24 10:29:29;;;;;;;10.82;7.00;;;;;;;25.80;52.55;69637.53;4945981;28;20042;-77
2022/07/24 10:32:35;;;;;;;9.50;6.40;;;;;;;26.09;50.88;69675.13;4908870;29;20060;-79
2022/07/24 10:35:46;;;;;;;8.45;5.60;;;;;;;26.10;50.15;69671.41;4897779;29;20577;-77
2022/07/24 10:39:20;;;;;;;10.98;6.28;;;;;;;26.03;50.34;69660.06;4882044;29;20161;-78
2022/07/24 10:42:00;;;;;;;8.52;7.28;;;;;;;26.11;50.45;69671.97;4879932;29;20421;-79
2022/07/24 10:44:25;;;;;;;8.80;6.10;;;;;;;26.19;51.47;69686.63;4896391;29;20064;-81
2022/07/24 10:47:07;;;;;;;9.05;6.20;;;;;;;26.28;51.49;69690.94;4925490;28;20111;-78
2022/07/24 10:49:34;;;;;;;8.32;6.30;;;;;;;26.42;50.78;69709.16;4950482;29;20043;-77
2022/07/24 10:52:00;;;;;;;9.02;5.93;;;;;;;26.48;50.21;69713.31;4966605;28;20058;-79
2022/07/24 10:54:25;;;;;;;8.48;5.35;;;;;;;26.71;49.11;69737.03;4983270;28;20046;-79
2022/07/24 10:58:04;;;;;;;9.70;5.90;;;;;;;26.68;49.53;69736.31;5017323;28;20098;-79
2022/07/24 11:00:37;;;;;;;8.80;5.60;;;;;;;26.78;49.21;69750.50;4981036;28;20084;-80
2022/07/24 11:03:05;;;;;;;7.88;5.25;;;;;;;26.72;49.16;69743.06;5030574;28;20094;-80
2022/07/24 11:05:33;;;;;;;6.15;4.70;;;;;;;26.75;49.01;69744.34;5061621;28;20106;-79
2022/07/24 11:08:20;;;;;;;7.63;5.03;;;;;;;26.81;47.93;69752.81;5056671;28;20049;-79
2022/07/24 11:10:46;;;;;;;7.55;4.72;;;;;;;26.74;47.87;69745.94;5062018;28;20048;-79
2022/07/24 11:14:14;;;;;;;8.27;5.38;;;;;;;26.85;49.61;69758.00;5072647;28;20561;-79
2022/07/24 11:17:27;;;;;;;6.82;4.90;;;;;;;27.04;48.11;69775.94;4998967;28;20075;-79
2022/07/24 11:20:15;;;;;;;9.77;5.57;;;;;;;26.93;49.32;69763.84;5056731;28;20024;-78
2022/07/24 11:22:48;;;;;;;6.82;5.25;;;;;;;27.09;49.21;69787.72;5050186;28;20456;-80
2022/07/24 11:25:25;;;;;;;8.10;5.63;;;;;;;27.27;48.36;69805.09;5046306;28;20564;-79
2022/07/24 11:27:58;;;;;;;11.55;6.07;;;;;;;27.34;48.98;69810.41;5044785;28;20041;-78
2022/07/24 11:30:29;;;;;;;6.22;5.13;;;;;;;27.46;48.10;69826.34;5053112;28;20537;-79
2022/07/24 11:32:55;;;;;;;8.43;5.22;;;;;;;27.41;47.79;69817.88;5050848;28;20060;-79
2022/07/24 11:35:32;;;;;;;8.15;5.20;;;;;;;27.32;48.42;69807.53;5066250;28;20048;-79
2022/07/24 11:38:00;;;;;;;7.18;5.13;;;;;;;27.56;48.13;69834.53;5067340;28;20025;-78
2022/07/24 11:40:25;;;;;;;6.70;4.88;;;;;;;27.56;47.72;69832.38;5057593;28;20051;-80
2022/07/24 11:42:58;;;;;;;7.30;4.90;;;;;;;27.89;47.59;69875.22;5049980;28;20045;-79
2022/07/24 11:45:23;;;;;;;7.55;4.95;;;;;;;27.71;47.29;69856.66;5046709;28;20207;-82
2022/07/24 11:47:49;;;;;;;8.73;4.75;;;;;;;27.58;47.97;69831.94;5048969;28;20041;-78
2022/07/24 11:50:14;;;;;;;6.10;4.60;;;;;;;27.76;47.18;69856.94;5074606;28;20058;-79
2022/07/24 11:52:41;;;;;;;7.00;4.75;;;;;;;27.75;47.81;69853.63;5086050;28;20047;-78
2022/07/24 11:55:13;;;;;;;7.85;4.60;;;;;;;27.91;47.46;69876.94;5086400;28;20041;-79
2022/07/24 11:57:41;;;;;;;9.32;4.50;;;;;;;28.02;47.08;69886.84;5068863;28;21386;-78
2022/07/24 12:00:12;;;;;;;5.75;4.20;;;;;;;28.03;47.20;69892.91;5068175;28;20045;-79
2022/07/24 12:02:56;;;;;;;6.57;5.18;;;;;;;28.13;46.98;69896.75;5067001;28;20037;-78
2022/07/24 12:05:30;;;;;;;5.78;4.13;;;;;;;28.33;46.86;69918.59;5069506;28;20036;-79
2022/07/24 12:07:57;;;;;;;6.70;3.97;;;;;;;28.20;46.66;69904.22;5048974;28;20044;-79
2022/07/24 12:10:23;;;;;;;5.88;4.15;;;;;;;28.12;45.43;69895.59;5068391;28;20052;-79
2022/07/24 12:12:50;;;;;;;4.80;3.22;;;;;;;28.18;45.72;69901.34;5073561;22;20059;-88
2022/07/24 12:15:16;;;;;;;5.32;3.33;;;;;;;28.38;45.65;69927.09;5067271;28;20501;-87
2022/07/24 12:18:01;;;;;;;5.60;3.78;;;;;;;28.65;46.25;69959.72;5066803;28;20157;-87